Time;durP1;ratioP1;P1;durP2;ratioP2;P2;SDS_P1;SDS_P2;PMS_P1;PMS_P2;Temp;Humidity;BMP_temperature;BMP_pressure;BME280_temperature;BME280_humidity;BME280_pressure;Samples;Min_cycle;Max_cycle;Signal;HPM_P1;HPM_P2
2022/08/06 00:00:31;;;;;;;12.15;3.45;;;;;;;12.37;100.00;102772.09;7377813;19;20041;-74
2022/08/06 00:03:03;;;;;;;10.25;3.33;;;;;;;12.36;100.00;102775.56;7378070;19;20010;-72
2022/08/06 00:05:33;;;;;;;9.38;2.95;;;;;;;12.37;100.00;102780.88;7379561;19;20284;-72
2022/08/06 00:08:10;;;;;;;7.50;3.00;;;;;;;12.36;100.00;102779.06;7377287;19;20011;-72
2022/08/06 00:10:49;;;;;;;7.57;3.35;;;;;;;12.33;100.00;102778.06;7378515;19;20040;-71
2022/08/06 00:13:19;;;;;;;8.25;3.40;;;;;;;12.32;100.00;102782.44;7377836;19;20011;-72
2022/08/06 00:15:50;;;;;;;9.50;2.95;;;;;;;12.30;100.00;102777.94;7384358;19;20522;-75
2022/08/06 00:18:40;;;;;;;6.00;3.10;;;;;;;12.28;100.00;102777.91;7385973;19;20010;-76
2022/08/06 00:21:12;;;;;;;9.70;4.03;;;;;;;12.26;100.00;102778.69;7386693;19;20014;-76
2022/08/06 00:24:02;;;;;;;7.72;3.17;;;;;;;12.27;100.00;102788.38;7383948;19;20422;-77
2022/08/06 00:26:44;;;;;;;9.48;3.35;;;;;;;12.25;100.00;102788.31;7388004;19;20023;-76
2022/08/06 00:29:34;;;;;;;8.98;3.72;;;;;;;12.23;100.00;102795.25;7386657;19;20033;-75
2022/08/06 00:32:20;;;;;;;8.18;3.40;;;;;;;12.20;100.00;102794.22;7385547;19;20010;-76
2022/08/06 00:34:58;;;;;;;9.13;3.30;;;;;;;12.17;100.00;102802.91;7385388;19;20007;-76
2022/08/06 00:37:31;;;;;;;10.40;3.30;;;;;;;12.16;100.00;102792.31;7382537;19;20021;-76
2022/08/06 00:40:24;;;;;;;5.65;3.00;;;;;;;12.13;100.00;102808.00;7384930;19;20045;-75
2022/08/06 00:43:04;;;;;;;7.80;3.42;;;;;;;12.11;100.00;102807.94;7383925;19;20051;-77
2022/08/06 00:45:43;;;;;;;6.93;3.20;;;;;;;12.10;100.00;102808.78;7385621;19;20014;-76
2022/08/06 00:48:15;;;;;;;7.25;3.22;;;;;;;12.10;100.00;102809.66;7383707;19;20355;-77
2022/08/06 00:51:05;;;;;;;7.90;3.10;;;;;;;12.08;100.00;102815.72;7383923;19;20019;-77
2022/08/06 00:53:47;;;;;;;7.65;3.30;;;;;;;12.05;100.00;102808.59;7379839;19;20011;-77
2022/08/06 00:56:17;;;;;;;6.97;3.70;;;;;;;12.04;100.00;102804.16;7386514;19;20453;-77
2022/08/06 00:59:01;;;;;;;6.30;2.92;;;;;;;12.02;100.00;102810.22;7374448;19;20014;-74
2022/08/06 01:01:35;;;;;;;9.20;3.33;;;;;;;11.99;100.00;102805.72;7387292;19;20011;-76
2022/08/06 01:04:20;;;;;;;8.23;3.20;;;;;;;11.96;100.00;102805.59;7384877;19;20010;-77
2022/08/06 01:06:55;;;;;;;7.72;3.20;;;;;;;11.96;100.00;102805.59;7383678;19;20015;-77
2022/08/06 01:09:29;;;;;;;8.00;3.35;;;;;;;11.96;100.00;102809.97;7376799;19;20293;-73
2022/08/06 01:12:01;;;;;;;8.05;3.22;;;;;;;11.96;100.00;102813.50;7375395;19;20128;-73
2022/08/06 01:14:37;;;;;;;7.80;3.28;;;;;;;11.96;100.00;102810.88;7376750;19;20015;-73
2022/08/06 01:17:15;;;;;;;6.28;3.08;;;;;;;11.94;100.00;102815.16;7375620;19;20017;-73
2022/08/06 01:20:05;;;;;;;5.47;2.72;;;;;;;11.92;100.00;102822.09;7377899;19;20011;-73
2022/08/06 01:23:15;;;;;;;10.13;3.13;;;;;;;11.89;100.00;102824.59;7374308;19;20047;-73
2022/08/06 01:26:15;;;;;;;11.77;4.53;;;;;;;11.86;100.00;102827.13;7374736;19;20018;-73
2022/08/06 01:28:58;;;;;;;7.18;2.83;;;;;;;11.82;100.00;102830.47;7373770;19;20011;-73
2022/08/06 01:31:35;;;;;;;5.53;2.65;;;;;;;11.78;100.00;102834.69;7375494;19;20043;-72
2022/08/06 01:34:13;;;;;;;9.60;3.33;;;;;;;11.75;100.00;102834.53;7370225;19;20035;-73
2022/08/06 01:36:46;;;;;;;6.32;2.65;;;;;;;11.75;100.00;102828.38;7372727;19;20082;-73
2022/08/06 01:39:20;;;;;;;;;;;;;;;11.75;100.00;102831.91;7372116;19;20310;-71
2022/08/06 01:42:12;;;;;;;9.70;3.10;;;;;;;11.75;100.00;102825.75;7369018;19;19933;-72
2022/08/06 01:44:48;;;;;;;7.60;2.90;;;;;;;11.72;100.00;102829.16;7374183;19;20007;-73
2022/08/06 01:47:25;;;;;;;9.38;3.47;;;;;;;11.73;100.00;102832.69;7373220;19;20022;-72
2022/08/06 01:50:16;;;;;;;9.13;3.25;;;;;;;11.73;100.00;102833.59;7371822;19;20074;-72
2022/08/06 01:53:00;;;;;;;9.10;3.60;;;;;;;11.70;100.00;102833.47;7367716;19;20037;-73
2022/08/06 01:55:31;;;;;;;;;;;;;;;11.70;100.00;102829.94;7371813;19;20010;-73
2022/08/06 01:58:28;;;;;;;5.68;3.22;;;;;;;11.68;100.00;102829.88;7371233;19;20270;-72
2022/08/06 02:01:06;;;;;;;6.53;3.38;;;;;;;11.67;100.00;102827.19;7371454;19;20090;-72
2022/08/06 02:03:43;;;;;;;7.25;3.47;;;;;;;11.68;100.00;102829.88;7372393;19;20033;-72
2022/08/06 02:06:34;;;;;;;6.65;3.25;;;;;;;11.63;100.00;102825.28;7374550;19;20019;-73
2022/08/06 02:09:08;;;;;;;9.38;3.63;;;;;;;11.62;100.00;102827.00;7372907;19;20014;-72
2022/08/06 02:12:02;;;;;;;10.30;3.80;;;;;;;11.59;100.00;102821.63;7374863;19;20017;-73
2022/08/06 02:14:40;;;;;;;7.90;3.88;;;;;;;11.58;100.00;102824.19;7371521;19;20020;-74
2022/08/06 02:17:16;;;;;;;10.38;4.00;;;;;;;11.56;100.00;102828.47;7371093;19;20009;-74
2022/08/06 02:20:12;;;;;;;7.53;3.67;;;;;;;11.53;100.00;102826.63;7372988;19;20529;-73
2022/08/06 02:23:05;;;;;;;8.50;4.03;;;;;;;11.52;100.00;102818.69;7375586;19;20018;-73
2022/08/06 02:25:39;;;;;;;8.75;3.70;;;;;;;11.53;100.00;102823.09;7375273;19;20010;-73
2022/08/06 02:28:13;;;;;;;7.03;4.20;;;;;;;11.51;100.00;102824.75;7374834;19;20018;-73
2022/08/06 02:30:58;;;;;;;9.93;4.18;;;;;;;11.49;100.00;102827.34;7377694;19;20025;-73
2022/08/06 02:33:33;;;;;;;9.88;3.72;;;;;;;11.47;100.00;102834.25;7376012;19;20024;-72
2022/08/06 02:36:32;;;;;;;11.43;4.57;;;;;;;11.43;100.00;102833.25;7378024;19;20015;-74
2022/08/06 02:39:08;;;;;;;8.90;3.90;;;;;;;11.44;100.00;102835.03;7380793;19;20470;-72
2022/08/06 02:41:46;;;;;;;9.15;3.95;;;;;;;11.42;100.00;102831.47;7382894;19;20471;-76
2022/08/06 02:44:33;;;;;;;8.65;4.07;;;;;;;11.41;100.00;102836.66;7386632;19;20003;-76
2022/08/06 02:47:09;;;;;;;7.75;4.18;;;;;;;11.34;100.00;102831.97;7386189;19;20014;-74
2022/08/06 02:49:55;;;;;;;11.25;4.03;;;;;;;11.34;100.00;102837.25;7385012;19;20006;-75
2022/08/06 02:52:32;;;;;;;11.43;4.97;;;;;;;11.33;100.00;102841.59;7381587;19;20158;-78
2022/08/06 02:55:20;;;;;;;8.07;3.55;;;;;;;11.31;100.00;102850.25;7382273;19;20010;-75
2022/08/06 02:58:02;;;;;;;9.70;3.75;;;;;;;11.30;100.00;102845.81;7387627;19;20011;-76
2022/08/06 03:00:39;;;;;;;6.13;3.50;;;;;;;11.30;100.00;102851.06;7384778;19;20027;-77
2022/08/06 03:03:25;;;;;;;8.02;3.40;;;;;;;11.28;100.00;102848.38;7382188;19;20048;-76
2022/08/06 03:06:08;;;;;;;8.20;3.30;;;;;;;11.24;100.00;102846.47;7383722;19;20047;-76
2022/08/06 03:08:43;;;;;;;8.73;3.53;;;;;;;11.24;100.00;102851.72;7384908;19;20010;-75
2022/08/06 03:11:18;;;;;;;8.52;3.33;;;;;;;11.24;100.00;102853.44;7383102;19;20051;-76
2022/08/06 03:13:51;;;;;;;6.60;3.42;;;;;;;11.23;100.00;102855.16;7386328;19;20475;-76
2022/08/06 03:16:22;;;;;;;8.75;4.55;;;;;;;11.21;100.00;102851.59;7383980;19;20014;-77
2022/08/06 03:19:00;;;;;;;6.75;3.20;;;;;;;11.18;100.00;102851.44;7385801;19;20018;-76
2022/08/06 03:21:55;;;;;;;8.10;3.33;;;;;;;11.17;100.00;102848.75;7384627;19;20251;-76
2022/08/06 03:24:29;;;;;;;7.57;4.03;;;;;;;11.17;100.00;102848.75;7386526;19;20015;-76
2022/08/06 03:27:09;;;;;;;9.05;3.47;;;;;;;11.20;100.00;102851.50;7382522;19;20010;-76
2022/08/06 03:29:46;;;;;;;9.40;3.92;;;;;;;11.16;100.00;102847.88;7383379;19;20015;-76
2022/08/06 03:32:31;;;;;;;8.15;3.70;;;;;;;11.14;100.00;102845.16;7386428;19;20498;-77
2022/08/06 03:35:21;;;;;;;;;;;;;;;11.13;100.00;102855.59;7384450;19;20011;-76
2022/08/06 03:38:16;;;;;;;14.98;4.35;;;;;;;11.12;100.00;102859.06;7389158;19;20563;-76
2022/08/06 03:40:49;;;;;;;10.45;3.88;;;;;;;11.10;100.00;102864.25;7385473;19;20018;-76
2022/08/06 03:43:20;;;;;;;;;;;;;;;11.08;100.00;102867.66;7385074;19;20019;-75
2022/08/06 03:46:03;;;;;;;8.43;2.95;;;;;;;11.05;100.00;102859.63;7388206;19;20296;-78
2022/08/06 03:48:41;;;;;;;10.07;4.00;;;;;;;11.04;100.00;102866.63;7388702;19;20455;-76
2022/08/06 03:51:15;;;;;;;7.93;3.83;;;;;;;11.01;100.00;102862.94;7387974;19;20007;-76
2022/08/06 03:53:48;;;;;;;;;;;;;;;11.00;100.00;102856.81;7381721;19;20021;-75
2022/08/06 03:56:30;;;;;;;8.32;3.55;;;;;;;10.93;100.00;102856.47;7387693;19;20300;-72
2022/08/06 03:59:05;;;;;;;8.30;3.53;;;;;;;10.96;100.00;102867.09;7375039;19;20015;-71
2022/08/06 04:01:39;;;;;;;8.40;3.20;;;;;;;10.94;100.00;102861.78;7372535;19;20010;-72
2022/08/06 04:04:19;;;;;;;7.65;2.90;;;;;;;10.95;100.00;102867.94;7367033;19;20011;-73
2022/08/06 04:06:57;;;;;;;6.95;3.67;;;;;;;10.93;100.00;102875.75;7373903;19;20018;-72
2022/08/06 04:09:34;;;;;;;12.07;3.35;;;;;;;10.92;100.00;102875.69;7378111;19;20014;-72
2022/08/06 04:12:28;;;;;;;9.77;3.80;;;;;;;10.91;100.00;102876.50;7375648;19;20021;-72
2022/08/06 04:15:19;;;;;;;6.75;2.90;;;;;;;10.88;100.00;102876.38;7372181;19;20348;-72
2022/08/06 04:17:58;;;;;;;6.30;3.20;;;;;;;10.90;100.00;102878.25;7376794;19;20022;-73
2022/08/06 04:20:31;;;;;;;8.18;3.45;;;;;;;10.90;100.00;102879.97;7379353;19;20018;-76
2022/08/06 04:23:13;;;;;;;9.02;3.67;;;;;;;10.91;100.00;102876.50;7382512;19;20018;-77
2022/08/06 04:26:09;;;;;;;9.40;4.00;;;;;;;10.91;100.00;102881.75;7382315;19;20044;-77
2022/08/06 04:28:48;;;;;;;11.43;3.80;;;;;;;10.89;100.00;102878.16;7381150;19;20046;-77
2022/08/06 04:31:31;;;;;;;11.65;5.43;;;;;;;10.90;100.00;102879.97;7383650;19;20028;-77
2022/08/06 04:34:27;;;;;;;14.88;6.65;;;;;;;10.92;100.00;102870.44;7383524;19;20479;-77
2022/08/06 04:37:01;;;;;;;12.90;5.15;;;;;;;10.93;100.00;102882.72;7384363;19;20046;-77
2022/08/06 04:39:35;;;;;;;12.13;5.22;;;;;;;10.92;100.00;102879.19;7384196;19;20086;-76
2022/08/06 04:42:21;;;;;;;7.90;4.03;;;;;;;10.91;100.00;102881.75;7383841;19;20182;-76
2022/08/06 04:44:53;;;;;;;22.58;7.50;;;;;;;10.94;100.00;102881.91;7385058;19;20493;-78
2022/08/06 04:47:32;;;;;;;17.67;5.88;;;;;;;10.92;100.00;102875.69;7385246;19;20022;-77
2022/08/06 04:50:17;;;;;;;14.10;5.90;;;;;;;10.94;100.00;102882.78;7380772;19;20455;-77
2022/08/06 04:52:54;;;;;;;14.80;5.57;;;;;;;10.98;100.00;102887.34;7379175;19;20520;-77
2022/08/06 04:55:25;;;;;;;11.13;4.90;;;;;;;11.00;100.00;102885.69;7379588;19;20349;-76
2022/08/06 04:58:08;;;;;;;9.88;4.40;;;;;;;11.06;100.00;102891.22;7375635;19;20060;-74
2022/08/06 05:00:50;;;;;;;7.78;3.88;;;;;;;11.12;100.00;102893.22;7372243;19;20300;-71
2022/08/06 05:03:40;;;;;;;8.18;4.03;;;;;;;11.16;100.00;102900.38;7372316;19;20019;-73
2022/08/06 05:06:38;;;;;;;9.23;4.30;;;;;;;11.23;100.00;102899.81;7381207;19;20435;-77
2022/08/06 05:09:22;;;;;;;7.68;3.67;;;;;;;11.30;100.00;102906.25;7377269;19;20015;-73
2022/08/06 05:12:19;;;;;;;10.45;4.38;;;;;;;11.36;100.00;102912.66;7379258;19;20464;-77
2022/08/06 05:14:58;;;;;;;9.25;3.95;;;;;;;11.45;100.00;102913.00;7382505;19;20027;-78
2022/08/06 05:17:35;;;;;;;7.43;3.92;;;;;;;11.54;100.00;102917.75;7380706;19;20364;-71
2022/08/06 05:20:12;;;;;;;8.60;3.50;;;;;;;11.69;100.00;102922.78;7377341;19;20014;-76
2022/08/06 05:23:03;;;;;;;7.22;3.75;;;;;;;11.92;100.00;102919.38;7383816;19;20027;-76
2022/08/06 05:25:50;;;;;;;9.48;4.07;;;;;;;12.14;100.00;102913.25;7375848;19;20467;-74
2022/08/06 05:28:25;;;;;;;9.95;4.43;;;;;;;12.33;100.00;102917.53;7382566;19;20629;-77
2022/08/06 05:31:00;;;;;;;12.77;5.43;;;;;;;12.56;100.00;102919.28;7372607;19;20526;-76
2022/08/06 05:33:32;;;;;;;9.35;4.60;;;;;;;12.76;100.00;102915.66;7369395;19;20011;-76
2022/08/06 05:36:09;;;;;;;7.55;3.70;;;;;;;12.96;100.00;102924.28;7366759;19;20022;-77
2022/08/06 05:38:49;;;;;;;7.50;3.42;;;;;;;13.21;100.00;102925.22;7374839;19;20017;-77
2022/08/06 05:41:29;;;;;;;8.95;3.42;;;;;;;13.46;100.00;102930.50;7375649;19;20014;-78
2022/08/06 05:44:07;;;;;;;5.78;3.05;;;;;;;13.65;100.00;102929.34;7375698;19;20047;-75
2022/08/06 05:46:44;;;;;;;7.93;3.25;;;;;;;13.92;100.00;102932.91;7375511;19;20022;-76
2022/08/06 05:49:19;;;;;;;10.98;3.22;;;;;;;14.17;100.00;102936.34;7370062;19;20027;-77
2022/08/06 05:52:16;;;;;;;8.15;3.10;;;;;;;14.47;100.00;102939.09;7373060;19;20007;-77
2022/08/06 05:54:51;;;;;;;5.72;2.72;;;;;;;14.71;100.00;102932.75;7376897;19;20045;-77
2022/08/06 05:57:31;;;;;;;6.03;2.78;;;;;;;14.91;100.00;102940.38;7375554;19;20011;-72
2022/08/06 06:00:19;;;;;;;5.93;3.53;;;;;;;15.18;100.00;102941.16;7374009;19;20006;-78
2022/08/06 06:03:15;;;;;;;6.78;2.38;;;;;;;15.49;100.00;102947.28;7378691;19;20081;-76
2022/08/06 06:05:59;;;;;;;7.07;2.40;;;;;;;15.77;100.00;102944.50;7378484;19;20762;-78
2022/08/06 06:08:46;;;;;;;6.22;2.45;;;;;;;16.01;100.00;102949.50;7375986;19;20010;-77
2022/08/06 06:11:32;;;;;;;3.00;2.05;;;;;;;16.22;100.00;102951.75;7377794;19;20018;-77
2022/08/06 06:14:35;;;;;;;4.30;1.90;;;;;;;16.51;100.00;102958.63;7377393;19;20109;-77
2022/08/06 06:17:23;;;;;;;2.45;1.60;;;;;;;16.72;100.00;102958.22;7378758;19;20480;-77
2022/08/06 06:20:09;;;;;;;3.13;1.90;;;;;;;16.97;100.00;102956.97;7382882;19;20085;-77
2022/08/06 06:22:52;;;;;;;4.93;1.85;;;;;;;17.19;100.00;102953.88;7372030;19;20014;-76
2022/08/06 06:25:30;;;;;;;3.83;1.90;;;;;;;17.44;100.00;102952.59;7375298;19;20014;-73
2022/08/06 06:28:09;;;;;;;7.90;2.67;;;;;;;17.56;100.00;102959.88;7372895;19;20030;-77
2022/08/06 06:30:55;;;;;;;8.30;2.13;;;;;;;17.64;97.75;102958.25;7374562;19;20007;-76
2022/08/06 06:33:42;;;;;;;4.30;1.55;;;;;;;17.91;99.55;102961.41;7375625;19;20022;-77
2022/08/06 06:36:29;;;;;;;3.60;1.50;;;;;;;18.36;98.96;102956.78;7376127;19;20053;-74
2022/08/06 06:39:05;;;;;;;5.05;1.90;;;;;;;18.50;93.72;102958.78;7377009;19;20031;-77
2022/08/06 06:41:43;;;;;;;4.80;1.60;;;;;;;18.58;93.08;102959.78;7378623;19;20011;-76
2022/08/06 06:44:23;;;;;;;4.38;2.00;;;;;;;18.81;93.24;102959.19;7379024;19;20034;-76
2022/08/06 06:47:20;;;;;;;8.77;4.18;;;;;;;18.60;87.98;102959.78;7376780;19;20498;-77
2022/08/06 06:50:02;;;;;;;5.25;1.85;;;;;;;18.86;88.48;102965.44;7381042;19;20010;-76
2022/08/06 06:52:42;;;;;;;4.25;1.50;;;;;;;19.24;87.84;102972.13;7385909;19;20039;-76
2022/08/06 06:55:16;;;;;;;4.68;1.70;;;;;;;19.32;86.50;102969.56;7393672;19;20027;-77
2022/08/06 06:58:09;;;;;;;3.38;1.38;;;;;;;19.64;86.38;102969.03;7394848;19;20054;-77
2022/08/06 07:00:41;;;;;;;1.58;1.15;;;;;;;19.72;84.70;102968.22;7393436;19;20015;-77
2022/08/06 07:03:18;;;;;;;5.38;1.60;;;;;;;19.81;83.55;102970.94;7394131;19;20090;-77
2022/08/06 07:05:54;;;;;;;4.75;1.50;;;;;;;19.93;80.02;102970.16;7382279;19;20018;-73
2022/08/06 07:08:46;;;;;;;4.93;2.17;;;;;;;20.16;81.72;102965.00;7375286;19;20455;-75
2022/08/06 07:11:25;;;;;;;4.35;1.60;;;;;;;19.99;78.84;102974.63;7379579;19;20014;-74
2022/08/06 07:14:09;;;;;;;5.47;1.70;;;;;;;20.05;77.71;102970.25;7380545;19;20057;-74
2022/08/06 07:16:46;;;;;;;2.85;1.42;;;;;;;20.50;77.21;102975.03;7387991;19;20015;-74
2022/08/06 07:19:21;;;;;;;4.13;1.45;;;;;;;20.48;73.90;102981.25;7397590;19;20027;-78
2022/08/06 07:21:53;;;;;;;4.03;1.50;;;;;;;20.07;73.45;102984.47;7393463;19;20010;-78
2022/08/06 07:24:31;;;;;;;2.92;1.40;;;;;;;19.73;74.68;102991.31;7392425;19;20014;-78
2022/08/06 07:27:11;;;;;;;3.45;1.35;;;;;;;19.26;75.55;102994.31;7373274;19;20043;-78
2022/08/06 07:29:45;;;;;;;7.15;2.90;;;;;;;19.19;79.64;102983.59;7395210;19;20014;-77
2022/08/06 07:32:30;;;;;;;8.45;2.63;;;;;;;19.95;78.31;102991.47;7389149;19;20086;-74
2022/08/06 07:35:07;;;;;;;1.70;1.27;;;;;;;19.84;74.09;102997.59;7377545;19;20019;-74
2022/08/06 07:37:45;;;;;;;3.17;1.48;;;;;;;20.28;73.00;102993.50;7375803;19;20014;-74
2022/08/06 07:40:26;;;;;;;5.00;1.63;;;;;;;19.91;75.02;102987.88;7392159;19;20143;-77
2022/08/06 07:43:04;;;;;;;6.25;1.63;;;;;;;20.10;76.18;102986.28;7391414;19;20088;-77
2022/08/06 07:45:52;;;;;;;5.80;1.57;;;;;;;20.54;74.07;102990.16;7396573;19;20027;-80
2022/08/06 07:48:31;;;;;;;7.63;1.83;;;;;;;20.68;73.24;102984.03;7394920;19;20031;-77
2022/08/06 07:51:06;;;;;;;5.70;1.48;;;;;;;20.32;68.40;102985.53;7393869;19;20506;-78
2022/08/06 07:53:43;;;;;;;2.67;1.40;;;;;;;19.57;72.15;102995.59;7388846;19;20015;-78
2022/08/06 08:06:24;;;;;;;3.70;1.42;;;;;;;19.44;72.27;103000.72;7394226;19;20048;-77
2022/08/06 08:09:01;;;;;;;2.05;1.15;;;;;;;19.33;74.37;103003.25;7392513;19;20452;-77
2022/08/06 08:11:34;;;;;;;5.97;1.42;;;;;;;20.49;70.88;102994.59;7392235;19;20022;-77
2022/08/06 08:14:31;;;;;;;3.15;1.40;;;;;;;20.92;66.96;103000.13;7387943;19;20014;-78
2022/08/06 08:17:02;;;;;;;3.55;1.40;;;;;;;20.69;66.46;103001.81;7393582;19;20002;-75
2022/08/06 08:19:37;;;;;;;4.60;1.63;;;;;;;20.64;68.53;103008.88;7374237;19;20018;-73
2022/08/06 08:22:13;;;;;;;5.38;1.33;;;;;;;21.74;66.64;103008.41;7379208;19;20500;-74
2022/08/06 08:24:50;;;;;;;3.10;1.30;;;;;;;21.96;64.63;103005.72;7378741;19;20403;-72
2022/08/06 08:27:24;;;;;;;5.40;2.13;;;;;;;21.34;63.05;103003.88;7379462;19;20021;-73
2022/08/06 08:29:57;;;;;;;3.17;1.58;;;;;;;20.94;65.07;103003.69;7378302;19;20010;-73
2022/08/06 08:32:31;;;;;;;9.23;3.15;;;;;;;20.56;66.79;103008.84;7379187;19;20010;-75
2022/08/06 08:35:06;;;;;;;2.78;1.50;;;;;;;20.48;67.24;103018.56;7381134;19;20014;-73
2022/08/06 08:37:37;;;;;;;8.85;1.73;;;;;;;20.01;69.47;103008.41;7375845;19;20119;-74
2022/08/06 08:40:14;;;;;;;2.33;1.55;;;;;;;19.91;71.53;103010.09;7380173;19;20134;-73
2022/08/06 08:42:46;;;;;;;4.05;1.40;;;;;;;20.13;70.03;103011.16;7380128;19;20363;-73
2022/08/06 08:45:23;;;;;;;4.30;1.55;;;;;;;20.47;70.02;103009.66;7381421;19;20019;-74
2022/08/06 08:48:04;;;;;;;3.03;1.30;;;;;;;20.40;69.79;103017.63;7379767;19;20082;-73
2022/08/06 08:50:38;;;;;;;2.78;1.45;;;;;;;20.60;70.01;103017.75;7379658;19;20017;-73
2022/08/06 08:53:14;;;;;;;4.00;1.40;;;;;;;21.36;68.55;103012.78;7371558;19;20011;-72
2022/08/06 08:56:06;;;;;;;3.80;1.10;;;;;;;20.64;64.14;103014.22;7378794;19;20014;-73
2022/08/06 08:58:57;;;;;;;3.13;1.10;;;;;;;20.49;62.90;103012.34;7380066;19;20011;-73
2022/08/06 09:01:34;;;;;;;3.03;1.08;;;;;;;20.51;63.34;103008.81;7376924;19;20018;-73
2022/08/06 09:04:24;;;;;;;3.58;1.70;;;;;;;19.75;66.32;103015.28;7377372;19;21171;-73
2022/08/06 09:07:01;;;;;;;1.92;1.30;;;;;;;20.72;64.37;103013.38;7379604;19;20021;-72
2022/08/06 09:09:31;;;;;;;;;;;;;;;20.90;nan;103017.88;7376671;19;20014;-71
2022/08/06 09:12:02;;;;;;;6.75;1.58;;;;;;;20.42;62.92;103016.75;7376873;19;19922;-72
2022/08/06 09:14:51;;;;;;;1.40;1.30;;;;;;;20.19;64.48;103021.88;7377002;19;20014;-72
2022/08/06 09:17:27;;;;;;;3.40;1.00;;;;;;;19.73;65.07;103023.25;7376310;19;20368;-73
2022/08/06 09:20:18;;;;;;;4.93;1.50;;;;;;;20.87;63.15;103023.22;7373854;19;20485;-72
2022/08/06 09:22:52;;;;;;;2.00;1.30;;;;;;;21.12;60.56;103017.09;7376825;19;20447;-72
2022/08/06 09:25:38;;;;;;;3.22;1.40;;;;;;;21.65;59.74;103015.50;7374322;19;20026;-72
2022/08/06 09:28:40;;;;;;;3.90;1.38;;;;;;;22.26;55.91;102999.50;7377212;19;20114;-75
2022/08/06 09:31:12;;;;;;;2.05;1.20;;;;;;;21.70;56.57;103013.75;7379002;19;20014;-75
2022/08/06 09:34:02;;;;;;;1.58;1.10;;;;;;;21.50;56.13;103011.94;7376516;19;20025;-74
2022/08/06 09:36:54;;;;;;;3.13;1.05;;;;;;;21.91;55.70;103016.41;7377531;19;20048;-75
2022/08/06 09:39:39;;;;;;;5.05;1.30;;;;;;;22.88;52.94;103002.03;7377291;19;20179;-74
2022/08/06 09:42:40;;;;;;;2.72;1.13;;;;;;;22.90;52.88;103004.72;7376602;19;20082;-75
2022/08/06 09:45:15;;;;;;;3.92;1.30;;;;;;;22.09;50.03;103015.56;7374024;19;20010;-75
2022/08/06 09:47:47;;;;;;;1.95;1.20;;;;;;;22.75;51.59;103006.56;7377623;19;20649;-74
2022/08/06 09:50:43;;;;;;;4.72;1.50;;;;;;;22.68;50.74;103003.91;7377483;19;20010;-74
2022/08/06 09:53:17;;;;;;;2.30;1.08;;;;;;;23.20;49.49;103007.25;7373045;19;20110;-74
2022/08/06 09:55:55;;;;;;;1.13;1.10;;;;;;;23.67;49.05;102995.41;7378206;19;20110;-74
2022/08/06 09:58:34;;;;;;;2.85;1.10;;;;;;;23.65;48.03;103008.81;7375226;19;20017;-74
2022/08/06 10:01:17;;;;;;;3.95;1.30;;;;;;;23.90;48.22;103008.66;7373835;19;20014;-74
2022/08/06 10:03:59;;;;;;;2.05;1.13;;;;;;;23.21;49.54;103005.47;7376940;19;20017;-75
2022/08/06 10:06:59;;;;;;;2.47;1.17;;;;;;;24.42;48.44;103009.97;7377190;19;20018;-74
2022/08/06 10:09:32;;;;;;;2.00;1.30;;;;;;;24.36;47.52;103003.78;7369566;19;20021;-74
2022/08/06 10:12:24;;;;;;;1.90;1.10;;;;;;;22.87;48.37;103011.00;7375274;19;20014;-73
2022/08/06 10:14:57;;;;;;;3.55;1.42;;;;;;;23.12;47.93;103009.09;7376083;19;20114;-74
2022/08/06 10:17:29;;;;;;;;;;;;;;;22.69;47.40;103013.69;7373208;19;20514;-74
2022/08/06 10:20:22;;;;;;;9.00;2.20;;;;;;;23.63;49.27;103007.94;7373391;19;19926;-73
2022/08/06 10:22:54;;;;;;;3.20;1.75;;;;;;;23.36;44.45;103013.44;7375531;19;20006;-73
2022/08/06 10:25:29;;;;;;;1.52;1.20;;;;;;;22.94;46.90;103015.41;7381574;19;20019;-73
2022/08/06 10:28:09;;;;;;;2.45;1.38;;;;;;;23.22;46.26;103012.63;7383161;19;20496;-73
2022/08/06 10:30:45;;;;;;;2.88;1.20;;;;;;;23.35;45.23;103019.69;7370866;19;20058;-74
2022/08/06 10:33:16;;;;;;;1.52;1.15;;;;;;;23.33;45.29;103013.44;7368155;19;20015;-74
2022/08/06 10:35:54;;;;;;;2.08;1.33;;;;;;;24.13;45.41;103002.16;7369511;19;20035;-74
2022/08/06 10:38:26;;;;;;;;;;;;;;;23.33;49.09;103021.47;7371856;19;20022;-75
2022/08/06 10:41:09;;;;;;;1.77;1.10;;;;;;;22.84;48.62;103021.72;7371626;19;19915;-74
2022/08/06 10:44:05;;;;;;;2.45;1.10;;;;;;;21.98;50.29;103017.31;7372893;19;20021;-73
2022/08/06 10:46:37;;;;;;;2.15;1.35;;;;;;;21.93;50.13;103021.75;7374331;19;20017;-73
2022/08/06 10:49:11;;;;;;;4.38;1.48;;;;;;;21.40;51.33;103017.25;7368235;19;20676;-73
2022/08/06 10:52:02;;;;;;;1.67;1.25;;;;;;;21.42;52.50;103020.81;7369987;19;20010;-73
2022/08/06 10:54:34;;;;;;;1.45;1.20;;;;;;;21.83;48.55;103026.22;7372483;19;20017;-74
2022/08/06 10:57:04;;;;;;;1.75;1.00;;;;;;;22.83;46.45;103014.59;7378753;19;20254;-73
2022/08/06 10:59:38;;;;;;;2.95;1.13;;;;;;;22.50;45.26;103016.41;7372377;19;20021;-73
2022/08/06 11:02:19;;;;;;;2.03;1.58;;;;;;;23.21;46.79;103018.88;7377701;19;20292;-74
2022/08/06 11:04:55;;;;;;;1.63;1.45;;;;;;;22.28;46.91;103021.78;7376758;19;20019;-74
2022/08/06 11:08:00;;;;;;;3.10;1.90;;;;;;;22.28;47.43;103003.97;7376767;19;20090;-73
2022/08/06 11:11:07;;;;;;;4.72;1.55;;;;;;;22.46;48.37;103009.28;7373448;19;20056;-73
2022/08/06 11:14:02;;;;;;;7.65;1.95;;;;;;;23.44;46.79;102998.22;7373146;19;20472;-73
2022/08/06 11:16:56;;;;;;;;;;;;;;;23.25;45.84;103002.78;7378264;19;20042;-73
2022/08/06 11:19:46;;;;;;;2.85;1.35;;;;;;;22.61;46.44;102999.47;7372282;19;20557;-73
2022/08/06 11:22:38;;;;;;;1.90;1.70;;;;;;;22.86;46.40;102995.84;7379086;19;21141;-73
2022/08/06 11:25:40;;;;;;;3.10;1.70;;;;;;;22.72;46.61;103001.22;7374692;19;20003;-73
2022/08/06 11:28:14;;;;;;;1.48;1.27;;;;;;;22.93;48.36;102997.56;7373014;19;20612;-73
2022/08/06 11:30:46;;;;;;;3.75;1.48;;;;;;;21.94;50.13;103008.41;7376621;19;20018;-73
2022/08/06 11:33:21;;;;;;;2.57;1.30;;;;;;;22.38;49.73;102996.81;7375975;19;20013;-73
2022/08/06 11:35:54;;;;;;;1.52;1.35;;;;;;;23.13;49.29;102993.03;7380174;19;20014;-72
2022/08/06 11:39:00;;;;;;;4.90;2.03;;;;;;;22.91;47.65;102995.78;7383023;19;20262;-72
2022/08/06 11:41:52;;;;;;;3.90;1.90;;;;;;;21.96;48.08;103000.38;7383053;19;20079;-74
2022/08/06 11:44:31;;;;;;;5.75;1.95;;;;;;;21.99;50.01;102993.25;7381053;19;20115;-72
2022/08/06 11:47:20;;;;;;;3.85;2.10;;;;;;;23.04;46.09;102987.72;7383377;19;20047;-72
2022/08/06 11:50:02;;;;;;;3.30;1.75;;;;;;;22.00;46.49;103002.16;7382472;19;20022;-71
2022/08/06 11:52:43;;;;;;;6.00;2.50;;;;;;;22.55;46.21;102994.13;7375653;19;20042;-72
2022/08/06 11:55:15;;;;;;;5.30;2.35;;;;;;;22.69;46.53;102985.16;7381103;19;20014;-71
2022/08/06 11:58:20;;;;;;;4.53;2.30;;;;;;;23.02;45.51;102988.63;7378760;19;20507;-71
2022/08/06 12:01:01;;;;;;;3.90;2.25;;;;;;;22.86;45.21;102997.63;7377672;19;20015;-74
2022/08/06 12:03:55;;;;;;;3.47;2.10;;;;;;;22.69;46.12;102995.88;7380655;19;20022;-72
2022/08/06 12:06:30;;;;;;;4.05;2.30;;;;;;;22.20;47.58;103000.41;7375564;19;20019;-74
2022/08/06 12:09:12;;;;;;;5.28;2.65;;;;;;;22.87;44.76;102989.59;7376488;19;20018;-74
2022/08/06 12:12:35;;;;;;;6.60;2.78;;;;;;;23.21;43.17;102995.66;7377288;19;20020;-75
2022/08/06 12:15:40;;;;;;;5.72;3.17;;;;;;;22.98;42.76;102994.88;7372646;19;20013;-75
2022/08/06 12:18:30;;;;;;;8.63;3.92;;;;;;;23.03;41.35;102996.63;7371918;19;20022;-75
2022/08/06 12:21:01;;;;;;;6.82;3.55;;;;;;;23.60;43.54;102991.88;7374930;19;20031;-75
2022/08/06 12:23:36;;;;;;;5.53;2.65;;;;;;;23.66;42.95;102983.81;7377361;19;20664;-74
2022/08/06 12:26:26;;;;;;;5.43;2.50;;;;;;;23.68;42.69;102991.84;7378688;19;20014;-75
2022/08/06 12:29:07;;;;;;;6.13;2.60;;;;;;;23.35;42.04;102992.91;7373820;19;20010;-74
2022/08/06 12:31:40;;;;;;;3.77;2.47;;;;;;;23.19;42.79;102981.41;7378417;19;20042;-74
2022/08/06 12:34:30;;;;;;;4.18;2.20;;;;;;;23.07;44.40;102971.63;7377280;19;20546;-75
2022/08/06 12:37:01;;;;;;;2.30;1.90;;;;;;;23.36;44.50;102978.63;7377845;19;20014;-75